Time;durP1;ratioP1;P1;durP2;ratioP2;P2;SDS_P1;SDS_P2;PMS_P1;PMS_P2;Temp;Humidity;BMP_temperature;BMP_pressure;BME280_temperature;BME280_humidity;BME280_pressure;Samples;Min_cycle;Max_cycle;Signal;HPM_P1;HPM_P2
2024/01/31 00:01:20;;;;;;;0.73;0.45;;;;;;;9.46;97.48;102068.91;6244711;22;20141;-88
2024/01/31 00:03:54;;;;;;;0.68;0.30;;;;;;;9.51;97.98;102071.44;6241326;22;20019;-86
2024/01/31 00:06:37;;;;;;;0.55;0.43;;;;;;;9.65;97.78;102069.44;6271794;22;20039;-88
2024/01/31 00:09:09;;;;;;;1.17;0.80;;;;;;;9.53;97.74;102075.41;6245550;22;20454;-87
2024/01/31 00:11:46;;;;;;;2.05;0.57;;;;;;;9.48;98.04;102080.16;6220578;22;20015;-87
2024/01/31 00:14:33;;;;;;;2.60;0.70;;;;;;;9.34;98.58;102077.56;6241896;22;20435;-86
2024/01/31 00:17:04;;;;;;;0.50;0.50;;;;;;;9.34;98.99;102084.84;6239512;22;20015;-87
2024/01/31 00:19:33;;;;;;;0.43;0.43;;;;;;;9.39;98.08;102093.53;6242932;22;20030;-87
2024/01/31 00:22:01;;;;;;;;;;;;;;;9.21;98.36;102093.78;6282635;22;20010;-88
2024/01/31 00:24:38;;;;;;;0.35;0.35;;;;;;;9.02;100.00;102089.44;6255680;22;20320;-89
2024/01/31 00:27:16;;;;;;;0.73;0.40;;;;;;;9.10;100.00;102091.38;6230123;22;20016;-89
2024/01/31 00:29:41;;;;;;;0.60;0.40;;;;;;;9.24;99.30;102099.34;6245756;22;20004;-89
2024/01/31 00:32:10;;;;;;;1.10;0.85;;;;;;;9.33;98.98;102105.53;6216572;22;20045;-88
2024/01/31 00:34:55;;;;;;;;;;;;;;;;;;;;;
2024/01/31 00:37:46;;;;;;;0.50;0.50;;;;;;;9.19;99.30;102112.13;6279287;22;20066;-89
2024/01/31 00:40:46;;;;;;;0.70;0.65;;;;;;;8.96;100.00;102103.31;6239597;22;20004;-89
2024/01/31 00:43:25;;;;;;;0.85;0.57;;;;;;;8.98;100.00;102111.88;6188522;23;20095;-89
2024/01/31 00:45:58;;;;;;;0.75;0.57;;;;;;;8.82;99.86;102114.13;6188642;23;20019;-88
2024/01/31 00:48:33;;;;;;;0.70;0.70;;;;;;;8.75;100.00;102111.06;6214914;23;20012;-88
2024/01/31 00:51:10;;;;;;;0.30;0.30;;;;;;;8.72;100.00;102119.75;6189682;23;20442;-89
2024/01/31 00:53:41;;;;;;;1.50;0.73;;;;;;;8.79;100.00;102128.16;6215975;23;20011;-89
2024/01/31 00:56:30;;;;;;;2.20;1.00;;;;;;;8.80;99.82;102120.91;6243749;23;20019;-88
2024/01/31 00:59:00;;;;;;;0.60;0.60;;;;;;;8.79;99.80;102130.03;6191123;23;20012;-88
2024/01/31 01:01:32;;;;;;;3.75;0.52;;;;;;;8.82;99.50;102137.50;6208857;23;20015;-89
2024/01/31 01:04:07;;;;;;;0.68;0.40;;;;;;;8.66;99.82;102137.09;6212521;23;20090;-89
2024/01/31 01:06:45;;;;;;;1.55;0.57;;;;;;;8.81;99.79;102144.75;6188463;23;20475;-90
2024/01/31 01:09:26;;;;;;;0.52;0.52;;;;;;;8.92;98.12;102142.63;6215225;23;20008;-88
2024/01/31 01:11:51;;;;;;;0.65;0.63;;;;;;;8.72;99.58;102145.81;6190221;23;20015;-88
2024/01/31 01:14:20;;;;;;;0.82;0.75;;;;;;;8.94;98.83;102137.75;6243064;23;20000;-89
2024/01/31 01:16:48;;;;;;;4.00;0.70;;;;;;;8.93;98.04;102147.69;6193429;23;20032;-90
2024/01/31 01:19:17;;;;;;;0.65;0.65;;;;;;;8.73;98.06;102153.56;6216291;23;20011;-88
2024/01/31 01:21:46;;;;;;;2.65;0.85;;;;;;;8.66;99.34;102153.19;6191380;23;20008;-88
2024/01/31 01:24:20;;;;;;;8.00;1.08;;;;;;;8.68;99.14;102158.25;6211992;23;20088;-88
2024/01/31 01:26:45;;;;;;;1.42;0.85;;;;;;;8.44;99.13;102155.84;6190851;23;20015;-89
2024/01/31 01:29:11;;;;;;;1.27;0.55;;;;;;;8.55;99.42;102151.03;6216012;23;20022;-89
2024/01/31 01:31:36;;;;;;;3.72;0.77;;;;;;;8.40;99.46;102164.81;6217825;23;20016;-88
2024/01/31 01:34:05;;;;;;;0.73;0.55;;;;;;;8.41;100.00;102169.88;6187627;23;20018;-89
2024/01/31 01:36:35;;;;;;;1.35;0.52;;;;;;;8.61;98.42;102169.44;6214751;23;20022;-89
2024/01/31 01:39:01;;;;;;;0.63;0.50;;;;;;;8.66;98.08;102174.69;6213511;23;20024;-88
2024/01/31 01:41:32;;;;;;;1.05;0.47;;;;;;;8.45;98.39;102167.38;6214391;23;20871;-90
2024/01/31 01:43:58;;;;;;;1.08;0.63;;;;;;;8.39;98.25;102177.44;6216446;23;20413;-88
2024/01/31 01:46:36;;;;;;;1.15;0.45;;;;;;;8.37;98.33;102173.47;6192496;23;20008;-88
2024/01/31 01:49:05;;;;;;;0.38;0.38;;;;;;;8.29;98.21;102185.72;6216275;23;20011;-88
2024/01/31 01:51:30;;;;;;;0.47;0.32;;;;;;;8.48;97.31;102178.31;6216025;23;20004;-88
2024/01/31 01:53:59;;;;;;;1.55;0.65;;;;;;;8.32;97.06;102179.75;6191069;23;20461;-89
2024/01/31 01:56:26;;;;;;;2.42;0.47;;;;;;;8.23;97.04;102186.88;6216283;23;20004;-86
2024/01/31 01:58:53;;;;;;;1.33;0.38;;;;;;;8.28;96.20;102181.44;6212411;23;20012;-88
2024/01/31 02:01:20;;;;;;;3.53;0.35;;;;;;;8.32;96.08;102190.50;6188600;23;20004;-89
2024/01/31 02:03:51;;;;;;;0.43;0.43;;;;;;;8.37;95.89;102200.31;6189032;23;20173;-88
2024/01/31 02:06:17;;;;;;;0.30;0.30;;;;;;;8.18;95.83;102203.91;6188163;23;20012;-88
2024/01/31 02:08:46;;;;;;;0.50;0.45;;;;;;;8.32;95.24;102211.16;6216487;23;20446;-89
2024/01/31 02:11:11;;;;;;;0.30;0.30;;;;;;;8.16;96.01;102205.28;6192288;23;20443;-88
2024/01/31 02:13:37;;;;;;;0.28;0.20;;;;;;;8.27;96.16;102201.31;6221243;23;20004;-89
2024/01/31 02:16:08;;;;;;;1.13;0.25;;;;;;;8.32;95.56;102211.16;6233654;23;20099;-89
2024/01/31 02:18:44;;;;;;;0.38;0.20;;;;;;;8.33;95.50;102215.41;6222959;23;20094;-91
2024/01/31 02:21:10;;;;;;;0.20;0.20;;;;;;;8.31;94.76;102206.88;6196402;23;20012;-89
2024/01/31 02:23:35;;;;;;;0.20;0.20;;;;;;;8.26;94.96;102218.53;6196793;23;20419;-88
2024/01/31 02:26:01;;;;;;;0.20;0.20;;;;;;;8.10;95.87;102228.75;6198386;23;20022;-90
2024/01/31 02:28:27;;;;;;;0.20;0.20;;;;;;;8.21;95.00;102223.94;6170500;23;20008;-89
2024/01/31 02:30:58;;;;;;;0.15;0.15;;;;;;;8.27;95.00;102213.94;6179773;23;20023;-89
2024/01/31 02:33:24;;;;;;;0.20;0.20;;;;;;;8.28;93.84;102224.38;6208368;23;20012;-88
2024/01/31 02:35:53;;;;;;;0.20;0.20;;;;;;;8.24;94.06;102226.03;6186050;23;20150;-88
2024/01/31 02:38:24;;;;;;;0.20;0.20;;;;;;;7.99;94.00;102216.59;6236357;23;20630;-88
2024/01/31 02:40:50;;;;;;;0.93;0.50;;;;;;;8.14;94.74;102212.84;6239969;23;20007;-89
2024/01/31 02:43:17;;;;;;;0.20;0.20;;;;;;;8.03;94.98;102208.78;6210162;23;20405;-89
2024/01/31 02:45:42;;;;;;;0.20;0.20;;;;;;;8.00;94.25;102214.72;6179961;23;20012;-89
2024/01/31 02:48:08;;;;;;;0.75;0.38;;;;;;;8.19;94.19;102208.16;6206527;23;20066;-88
2024/01/31 02:50:34;;;;;;;0.20;0.20;;;;;;;8.20;93.55;102222.38;6183817;23;20089;-89
2024/01/31 02:53:05;;;;;;;0.20;0.20;;;;;;;8.10;94.13;102214.53;6186342;23;20051;-89
2024/01/31 02:55:34;;;;;;;0.30;0.30;;;;;;;8.08;93.99;102214.03;6214713;23;20094;-88
2024/01/31 02:58:00;;;;;;;0.80;0.80;;;;;;;8.00;93.74;102209.34;6236393;22;20255;-79
2024/01/31 03:00:25;;;;;;;1.58;0.20;;;;;;;7.90;94.59;102212.22;6261157;23;20985;-79
2024/01/31 03:02:51;;;;;;;0.45;0.30;;;;;;;8.01;94.15;102201.00;6233782;23;19996;-82
2024/01/31 03:05:16;;;;;;;0.20;0.20;;;;;;;8.01;93.59;102209.03;6249693;23;20016;-82
2024/01/31 03:07:42;;;;;;;0.57;0.40;;;;;;;7.91;93.90;102200.41;6199316;23;20011;-82
2024/01/31 03:10:09;;;;;;;3.33;0.20;;;;;;;7.82;93.78;102212.94;6224486;23;20008;-82
2024/01/31 03:12:35;;;;;;;0.20;0.20;;;;;;;8.04;93.41;102211.16;6199043;23;20004;-82
2024/01/31 03:15:01;;;;;;;0.20;0.20;;;;;;;7.94;93.25;102216.72;6261815;23;20056;-82
2024/01/31 03:17:26;;;;;;;1.25;0.28;;;;;;;8.15;92.86;102220.56;6224367;23;20009;-82
2024/01/31 03:19:52;;;;;;;0.35;0.35;;;;;;;8.13;92.53;102220.06;6224411;23;20004;-81
2024/01/31 03:22:17;;;;;;;0.77;0.22;;;;;;;8.11;92.69;102219.56;6224928;23;20007;-82
2024/01/31 03:24:42;;;;;;;0.20;0.20;;;;;;;8.01;93.04;102210.97;6223697;23;20455;-82
2024/01/31 03:27:08;;;;;;;0.25;0.25;;;;;;;8.03;92.85;102220.28;6222260;23;20004;-81
2024/01/31 03:29:33;;;;;;;0.82;0.25;;;;;;;8.23;91.87;102237.09;6224432;23;20016;-81
2024/01/31 03:31:59;;;;;;;0.50;0.40;;;;;;;8.17;92.61;102239.06;6251026;23;20000;-82
2024/01/31 03:34:24;;;;;;;1.13;0.70;;;;;;;8.27;92.64;102238.88;6200474;23;20012;-82
2024/01/31 03:36:50;;;;;;;3.72;0.55;;;;;;;8.23;92.80;102242.44;6200409;23;19996;-80
2024/01/31 03:39:15;;;;;;;0.28;0.28;;;;;;;8.42;92.29;102243.94;6226265;23;20008;-79
2024/01/31 03:41:44;;;;;;;0.32;0.32;;;;;;;8.26;92.96;102240.00;6224802;23;20020;-79
2024/01/31 03:44:10;;;;;;;0.35;0.35;;;;;;;8.20;93.03;102238.47;6226655;23;20019;-82
2024/01/31 03:46:36;;;;;;;1.92;0.60;;;;;;;8.06;93.86;102245.72;6196557;23;20092;-82
2024/01/31 03:49:01;;;;;;;0.30;0.30;;;;;;;7.93;95.07;102244.63;6224031;23;20347;-81
2024/01/31 03:51:27;;;;;;;3.78;1.75;;;;;;;8.02;94.92;102242.03;6261768;23;20000;-82
2024/01/31 03:53:52;;;;;;;1.05;0.43;;;;;;;7.98;94.58;102244.53;6224729;23;20012;-81
2024/01/31 03:56:18;;;;;;;1.90;0.32;;;;;;;7.78;95.35;102254.84;6251019;23;20032;-82
2024/01/31 03:58:44;;;;;;;0.20;0.20;;;;;;;7.83;95.03;102252.06;6194698;23;20016;-82
2024/01/31 04:01:14;;;;;;;1.17;0.50;;;;;;;8.09;94.21;102242.47;6223554;23;20007;-82
2024/01/31 04:03:43;;;;;;;6.03;0.50;;;;;;;8.08;93.16;102240.84;6226318;23;20540;-82
2024/01/31 04:06:11;;;;;;;0.20;0.20;;;;;;;8.07;94.16;102240.03;6216036;23;19996;-82
2024/01/31 04:08:36;;;;;;;1.50;0.47;;;;;;;8.23;93.75;102248.59;6221466;23;20041;-83
2024/01/31 04:11:02;;;;;;;1.75;0.50;;;;;;;8.09;94.00;102255.88;6192551;23;20059;-82
2024/01/31 04:13:28;;;;;;;6.25;0.75;;;;;;;8.25;92.95;102265.22;6219405;23;20393;-81
2024/01/31 04:15:54;;;;;;;0.57;0.57;;;;;;;8.21;93.01;102270.38;6217918;23;20004;-81
2024/01/31 04:18:19;;;;;;;1.98;0.40;;;;;;;8.10;92.94;102273.53;6226931;23;20078;-81
2024/01/31 04:20:45;;;;;;;1.83;0.75;;;;;;;8.12;93.54;102266.00;6252709;23;19996;-81
2024/01/31 04:23:11;;;;;;;2.25;0.95;;;;;;;8.13;93.14;102270.25;6254081;23;20042;-81
2024/01/31 04:25:37;;;;;;;2.17;0.70;;;;;;;7.97;92.54;102266.28;6226151;23;20008;-81
2024/01/31 04:28:02;;;;;;;7.60;0.98;;;;;;;7.94;92.14;102275.72;6225643;23;20020;-81
2024/01/31 04:30:28;;;;;;;2.67;0.60;;;;;;;7.97;92.30;102275.13;6263307;23;20163;-81
2024/01/31 04:32:53;;;;;;;0.93;0.45;;;;;;;7.88;92.35;102290.31;6225139;23;20038;-79
2024/01/31 04:35:19;;;;;;;0.40;0.40;;;;;;;7.90;91.98;102292.69;6236544;23;20003;-78
2024/01/31 04:37:44;;;;;;;1.00;0.85;;;;;;;8.04;91.44;102288.13;6237028;23;20019;-81
2024/01/31 04:40:10;;;;;;;1.17;0.50;;;;;;;8.11;90.75;102296.59;6228377;23;19996;-81
2024/01/31 04:42:36;;;;;;;0.60;0.45;;;;;;;8.05;90.79;102301.25;6254526;23;20130;-81
2024/01/31 04:45:02;;;;;;;0.52;0.43;;;;;;;8.04;90.43;102302.34;6236511;23;20007;-81
2024/01/31 04:47:28;;;;;;;0.73;0.38;;;;;;;8.00;90.39;102305.91;6224797;23;20015;-81
2024/01/31 04:49:56;;;;;;;0.43;0.43;;;;;;;7.89;90.80;102305.31;6252212;23;20184;-85
2024/01/31 04:52:21;;;;;;;0.20;0.20;;;;;;;7.83;90.87;102313.75;6237613;23;20409;-81
2024/01/31 04:54:47;;;;;;;0.50;0.50;;;;;;;8.01;90.76;102316.34;6227114;23;20046;-81
2024/01/31 04:57:12;;;;;;;0.43;0.43;;;;;;;7.89;91.62;102317.94;6237972;23;20004;-81
2024/01/31 04:59:38;;;;;;;1.85;0.40;;;;;;;7.85;92.28;102309.69;6265905;23;20004;-81
2024/01/31 05:02:06;;;;;;;0.63;0.38;;;;;;;7.94;91.95;102320.50;6227830;23;20008;-81
2024/01/31 05:04:32;;;;;;;1.45;0.52;;;;;;;7.93;91.42;102310.88;6203139;23;20082;-81
2024/01/31 05:06:57;;;;;;;4.85;0.50;;;;;;;7.79;90.36;102310.06;6255348;23;20008;-81
2024/01/31 05:09:23;;;;;;;1.85;0.47;;;;;;;7.73;89.63;102304.00;6202536;23;20000;-81
2024/01/31 05:11:48;;;;;;;0.35;0.35;;;;;;;7.88;88.48;102309.06;6226755;23;20470;-81
2024/01/31 05:14:14;;;;;;;1.35;0.73;;;;;;;8.05;87.14;102303.16;6227452;23;20003;-81
2024/01/31 05:16:40;;;;;;;0.57;0.57;;;;;;;8.14;86.05;102310.22;6227576;23;20023;-79
2024/01/31 05:19:08;;;;;;;3.35;0.70;;;;;;;8.06;85.75;102318.16;6255137;23;20004;-81
2024/01/31 05:21:34;;;;;;;0.50;0.50;;;;;;;8.13;85.65;102305.13;6253891;23;20011;-81
2024/01/31 05:23:59;;;;;;;0.73;0.73;;;;;;;8.01;85.81;102302.94;6228082;23;20420;-81
2024/01/31 05:26:25;;;;;;;0.32;0.25;;;;;;;7.91;84.80;102315.75;6228388;23;20035;-80
2024/01/31 05:28:50;;;;;;;0.30;0.30;;;;;;;7.91;84.54;102324.59;6227401;23;20497;-81
2024/01/31 05:31:16;;;;;;;0.60;0.45;;;;;;;8.05;83.46;102329.97;6228254;23;20008;-81
2024/01/31 05:33:41;;;;;;;0.90;0.35;;;;;;;8.15;83.03;102321.72;6227216;23;20004;-81
2024/01/31 05:36:07;;;;;;;0.63;0.30;;;;;;;8.03;82.10;102332.16;6254932;23;20012;-81
2024/01/31 05:38:32;;;;;;;0.40;0.32;;;;;;;8.03;82.74;102334.84;6264966;23;20004;-81
2024/01/31 05:40:58;;;;;;;4.38;1.30;;;;;;;8.08;81.87;102338.22;6202621;23;20011;-81
2024/01/31 05:43:23;;;;;;;0.30;0.20;;;;;;;7.98;81.32;102340.28;6229695;23;20007;-81
2024/01/31 05:45:48;;;;;;;0.45;0.45;;;;;;;8.03;80.91;102329.47;6264395;23;20004;-81
2024/01/31 05:48:14;;;;;;;0.85;0.30;;;;;;;7.90;80.22;102349.00;6203062;23;20003;-81
2024/01/31 05:50:40;;;;;;;1.48;0.45;;;;;;;7.93;79.03;102354.59;6265390;23;20030;-81
2024/01/31 05:53:05;;;;;;;2.40;0.85;;;;;;;8.08;79.80;102366.94;6265456;23;20003;-81
2024/01/31 05:55:31;;;;;;;7.18;0.95;;;;;;;8.16;79.15;102366.25;6228788;23;20036;-81
2024/01/31 05:57:56;;;;;;;3.78;0.63;;;;;;;8.11;79.70;102356.41;6255893;23;20000;-81
2024/01/31 06:00:22;;;;;;;0.20;0.20;;;;;;;8.10;79.60;102354.03;6227828;23;20008;-81
2024/01/31 06:02:47;;;;;;;2.83;0.70;;;;;;;8.21;79.13;102350.06;6227210;23;19996;-85
2024/01/31 06:05:13;;;;;;;0.40;0.25;;;;;;;8.05;79.81;102357.59;6259659;23;20134;-82
2024/01/31 06:07:39;;;;;;;0.45;0.40;;;;;;;8.08;78.89;102357.00;6231244;23;20000;-82
2024/01/31 06:10:05;;;;;;;1.33;0.35;;;;;;;8.20;78.77;102359.22;6226686;23;20016;-82
2024/01/31 06:12:31;;;;;;;0.45;0.40;;;;;;;8.17;78.50;102360.59;6237352;23;20004;-82
2024/01/31 06:14:56;;;;;;;1.55;0.40;;;;;;;8.23;79.40;102358.63;6201223;23;20054;-80
2024/01/31 06:17:21;;;;;;;0.45;0.30;;;;;;;8.20;78.71;102365.38;6263334;23;20011;-86
2024/01/31 06:19:48;;;;;;;7.75;0.80;;;;;;;8.18;78.85;102372.13;6254406;23;20011;-81
2024/01/31 06:22:13;;;;;;;0.40;0.40;;;;;;;8.20;78.95;102370.75;6201870;23;20004;-80
2024/01/31 06:24:39;;;;;;;1.05;0.30;;;;;;;8.33;78.08;102379.94;6227368;23;20008;-80
2024/01/31 06:27:04;;;;;;;2.42;0.43;;;;;;;8.28;77.75;102366.63;6239495;23;20047;-81
2024/01/31 06:29:30;;;;;;;0.95;0.38;;;;;;;8.14;77.87;102379.19;6229285;23;20012;-80
2024/01/31 06:31:59;;;;;;;1.88;0.40;;;;;;;8.16;78.16;102377.81;6249442;23;20063;-82
2024/01/31 06:34:25;;;;;;;1.30;0.85;;;;;;;8.30;78.07;102372.47;6264478;23;20038;-80
2024/01/31 06:36:50;;;;;;;0.57;0.57;;;;;;;8.31;77.88;102375.94;6227278;23;20008;-81
2024/01/31 06:39:16;;;;;;;4.65;0.60;;;;;;;8.29;77.43;102378.94;6254295;23;20024;-81
2024/01/31 06:41:41;;;;;;;4.63;0.50;;;;;;;8.18;77.52;102385.53;6239126;23;20008;-80
2024/01/31 06:44:07;;;;;;;0.40;0.40;;;;;;;8.28;76.67;102400.69;6201889;23;20003;-80
2024/01/31 06:46:32;;;;;;;3.10;0.77;;;;;;;8.31;77.29;102392.84;6224309;23;20059;-82
2024/01/31 06:48:58;;;;;;;8.02;0.70;;;;;;;8.40;76.87;102388.38;6258135;23;20034;-80
2024/01/31 06:51:24;;;;;;;2.80;0.63;;;;;;;8.43;76.96;102395.84;6172388;23;20096;-78
2024/01/31 06:53:49;;;;;;;0.82;0.60;;;;;;;8.34;77.23;102396.84;6178336;23;20055;-78
2024/01/31 06:56:19;;;;;;;4.85;0.73;;;;;;;8.39;77.02;102396.72;6180689;23;20020;-78
2024/01/31 06:58:48;;;;;;;9.90;0.77;;;;;;;8.21;77.49;102409.09;6181397;23;20317;-78
2024/01/31 07:01:15;;;;;;;2.15;0.50;;;;;;;8.26;77.91;102397.50;6186103;23;20001;-78
2024/01/31 07:03:40;;;;;;;0.60;0.60;;;;;;;8.26;77.37;102401.00;6203890;23;20015;-78
2024/01/31 07:06:06;;;;;;;5.60;0.77;;;;;;;8.28;77.28;102409.56;6215610;23;20001;-78
2024/01/31 07:08:31;;;;;;;6.22;0.60;;;;;;;8.33;77.79;102406.78;6181277;23;20012;-78
2024/01/31 07:10:57;;;;;;;0.55;0.35;;;;;;;8.36;77.42;102411.56;6181385;23;20071;-78
2024/01/31 07:13:22;;;;;;;0.20;0.20;;;;;;;8.28;77.86;102416.81;6179076;23;20080;-78
2024/01/31 07:15:48;;;;;;;5.05;0.80;;;;;;;8.37;76.99;102409.66;6179327;23;20005;-77
2024/01/31 07:18:13;;;;;;;1.40;0.80;;;;;;;8.24;77.85;102405.84;6180974;23;20029;-78
2024/01/31 07:20:38;;;;;;;0.50;0.50;;;;;;;8.13;78.22;102407.09;6154483;23;20009;-78
2024/01/31 07:23:04;;;;;;;0.82;0.68;;;;;;;8.22;77.98;102413.38;6179554;23;20005;-78
2024/01/31 07:25:29;;;;;;;0.65;0.50;;;;;;;8.27;78.02;102405.25;6182426;23;20353;-78
2024/01/31 07:27:59;;;;;;;0.40;0.40;;;;;;;8.17;78.14;102422.31;6179634;23;20020;-78
2024/01/31 07:30:27;;;;;;;0.45;0.45;;;;;;;8.07;77.27;102416.34;6190591;23;20034;-78
2024/01/31 07:32:53;;;;;;;1.58;0.43;;;;;;;8.11;77.34;102420.81;6190779;23;20301;-77
2024/01/31 07:35:18;;;;;;;2.35;0.35;;;;;;;8.16;77.15;102418.06;6179234;23;20383;-77
2024/01/31 07:37:44;;;;;;;0.85;0.60;;;;;;;8.13;77.47;102423.19;6191720;23;20008;-77
2024/01/31 07:40:09;;;;;;;0.68;0.68;;;;;;;8.03;78.24;102420.69;6191948;23;20020;-77
2024/01/31 07:42:36;;;;;;;6.70;0.77;;;;;;;8.18;77.34;102423.13;6201007;23;20448;-77
2024/01/31 07:45:02;;;;;;;0.85;0.40;;;;;;;8.07;77.04;102435.88;6181898;23;20038;-77
2024/01/31 07:47:30;;;;;;;1.45;0.30;;;;;;;8.04;77.67;102430.31;6190974;23;20028;-77
2024/01/31 07:49:56;;;;;;;0.47;0.45;;;;;;;8.21;77.04;102435.94;6220313;23;20470;-77
2024/01/31 07:52:21;;;;;;;0.93;0.50;;;;;;;8.21;77.15;102439.41;6211038;23;20009;-77
2024/01/31 07:54:47;;;;;;;0.22;0.22;;;;;;;8.30;77.29;102430.72;6186192;23;20027;-77
2024/01/31 07:57:12;;;;;;;5.00;0.82;;;;;;;8.23;77.36;102432.97;6194520;23;20020;-78
2024/01/31 07:59:38;;;;;;;3.30;0.63;;;;;;;8.17;78.03;102422.31;6210807;23;20076;-77
2024/01/31 08:02:03;;;;;;;0.70;0.55;;;;;;;8.39;77.18;102420.88;6184760;23;20100;-77
2024/01/31 08:04:29;;;;;;;1.48;0.40;;;;;;;8.27;76.79;102416.00;6209801;23;20056;-77
2024/01/31 08:06:54;;;;;;;6.07;0.63;;;;;;;8.36;76.86;102416.13;6185757;23;20012;-77
2024/01/31 08:09:22;;;;;;;1.95;0.65;;;;;;;8.37;76.49;102415.03;6185602;23;20316;-77
2024/01/31 08:11:48;;;;;;;0.80;0.50;;;;;;;8.34;76.60;102421.78;6185864;23;20062;-77
2024/01/31 08:14:13;;;;;;;2.53;0.90;;;;;;;8.34;76.85;102427.16;6210249;23;20028;-77
2024/01/31 08:16:39;;;;;;;0.57;0.55;;;;;;;8.48;76.08;102416.44;6209417;23;20025;-77
2024/01/31 08:19:04;;;;;;;0.40;0.40;;;;;;;8.49;76.35;102426.88;6160514;23;20028;-77
2024/01/31 08:21:32;;;;;;;3.97;0.50;;;;;;;8.40;76.45;102425.97;6185223;23;20040;-78
2024/01/31 08:23:58;;;;;;;6.28;0.55;;;;;;;8.41;75.80;102430.25;6183633;23;20008;-77
2024/01/31 08:26:24;;;;;;;1.85;0.55;;;;;;;8.40;75.58;102438.59;6221936;23;20009;-77
2024/01/31 08:28:49;;;;;;;0.50;0.50;;;;;;;8.27;76.10;102423.25;6212286;23;20023;-77
2024/01/31 08:31:15;;;;;;;0.68;0.40;;;;;;;8.33;76.14;102438.97;6183763;23;20024;-76
2024/01/31 08:33:40;;;;;;;1.48;0.65;;;;;;;8.38;76.00;102438.09;6222754;23;20008;-77
2024/01/31 08:36:06;;;;;;;1.48;0.30;;;;;;;8.25;75.54;102449.56;6186220;23;20447;-76
2024/01/31 08:38:31;;;;;;;0.93;0.40;;;;;;;8.49;75.17;102459.09;6223320;23;20370;-77
2024/01/31 08:40:57;;;;;;;0.43;0.40;;;;;;;8.29;75.12;102461.31;6185114;23;20016;-76
2024/01/31 08:43:22;;;;;;;0.80;0.47;;;;;;;8.55;75.29;102478.59;6186222;23;20398;-77
2024/01/31 08:45:47;;;;;;;0.60;0.45;;;;;;;8.55;75.33;102478.59;6185021;23;20096;-77
2024/01/31 08:48:13;;;;;;;1.45;0.30;;;;;;;8.49;74.96;102475.22;6220844;23;20051;-76
2024/01/31 08:50:38;;;;;;;0.70;0.50;;;;;;;8.59;74.12;102477.72;6185707;23;20033;-77
2024/01/31 08:53:04;;;;;;;1.52;0.43;;;;;;;8.39;75.47;102475.38;6213104;23;20439;-77
2024/01/31 08:55:29;;;;;;;0.35;0.32;;;;;;;8.55;74.13;102479.41;6211019;23;20008;-77
2024/01/31 08:57:55;;;;;;;3.20;1.00;;;;;;;8.48;74.21;102465.53;6222152;23;20005;-77
2024/01/31 09:00:20;;;;;;;1.02;0.82;;;;;;;8.55;74.18;102473.22;6208869;23;20020;-77
2024/01/31 09:02:46;;;;;;;3.35;0.40;;;;;;;8.61;73.76;102470.16;6185974;23;20388;-77
2024/01/31 09:05:12;;;;;;;0.65;0.40;;;;;;;8.58;73.78;102468.06;6220579;23;20020;-76
2024/01/31 09:07:37;;;;;;;0.30;0.30;;;;;;;8.50;73.29;102455.31;6211557;23;20009;-76
2024/01/31 09:10:04;;;;;;;0.70;0.47;;;;;;;8.47;73.19;102466.66;6210199;23;20015;-76
2024/01/31 09:12:30;;;;;;;0.30;0.30;;;;;;;8.58;73.38;102480.69;6212253;23;20062;-76
2024/01/31 09:14:56;;;;;;;0.45;0.22;;;;;;;8.64;72.49;102483.00;6159768;23;20612;-77
2024/01/31 09:17:21;;;;;;;0.30;0.30;;;;;;;8.52;72.83;102463.06;6208652;23;20008;-77
2024/01/31 09:19:47;;;;;;;2.50;0.73;;;;;;;8.55;73.22;102457.13;6185759;23;20009;-77
2024/01/31 09:22:12;;;;;;;0.20;0.20;;;;;;;8.52;72.82;102463.88;6212650;23;20012;-77
2024/01/31 09:24:38;;;;;;;1.38;0.45;;;;;;;8.53;73.30;102460.09;6212430;23;20316;-78
2024/01/31 09:27:04;;;;;;;1.88;0.60;;;;;;;8.77;72.84;102465.28;6211605;23;20016;-77
2024/01/31 09:29:29;;;;;;;1.27;0.30;;;;;;;8.55;73.39;102449.06;6211019;23;20017;-77
2024/01/31 09:31:55;;;;;;;3.53;0.50;;;;;;;8.52;73.22;102446.97;6222341;23;20050;-77
2024/01/31 09:34:20;;;;;;;0.68;0.47;;;;;;;8.74;72.82;102450.56;6222549;23;20008;-76
2024/01/31 09:36:46;;;;;;;1.00;0.35;;;;;;;8.83;72.52;102454.16;6220867;23;20335;-77
2024/01/31 09:39:12;;;;;;;0.30;0.30;;;;;;;8.68;71.86;102442.91;6208317;23;20439;-77
2024/01/31 09:41:37;;;;;;;5.75;0.57;;;;;;;8.75;71.61;102436.03;6209290;23;20398;-77
2024/01/31 09:44:03;;;;;;;2.15;0.85;;;;;;;8.73;72.03;102438.22;6182152;23;20027;-79
2024/01/31 09:46:30;;;;;;;1.13;0.50;;;;;;;8.89;71.10;102430.66;6182681;23;20009;-78
2024/01/31 09:48:55;;;;;;;1.55;0.40;;;;;;;8.88;71.74;102448.66;6213141;23;20016;-78
2024/01/31 09:51:24;;;;;;;0.40;0.40;;;;;;;9.05;71.77;102440.03;6212083;23;20095;-77
2024/01/31 09:53:53;;;;;;;1.75;0.60;;;;;;;8.97;71.83;102440.72;6214471;23;20019;-77
2024/01/31 09:56:18;;;;;;;0.60;0.60;;;;;;;9.04;71.31;102435.72;6214347;23;20013;-77
2024/01/31 09:58:44;;;;;;;0.30;0.30;;;;;;;9.08;70.45;102434.84;6213960;23;20031;-77
2024/01/31 10:01:12;;;;;;;1.20;0.40;;;;;;;9.07;69.40;102430.56;6185778;23;20012;-77
2024/01/31 10:03:37;;;;;;;0.80;0.55;;;;;;;9.09;70.17;102431.06;6211078;23;20012;-76
2024/01/31 10:06:03;;;;;;;1.33;0.45;;;;;;;9.02;69.79;102436.03;6213575;23;20059;-77
2024/01/31 10:08:29;;;;;;;6.97;0.70;;;;;;;8.97;68.78;102438.03;6186163;23;20027;-77
2024/01/31 10:10:55;;;;;;;0.20;0.20;;;;;;;8.97;68.06;102428.09;6186976;23;20448;-77
2024/01/31 10:13:21;;;;;;;0.77;0.70;;;;;;;8.80;68.14;102411.78;6223416;23;20332;-77
2024/01/31 10:15:47;;;;;;;6.47;0.93;;;;;;;9.01;67.67;102401.41;6211443;23;20013;-77
2024/01/31 10:18:13;;;;;;;9.85;0.82;;;;;;;9.29;67.26;102383.34;6213324;23;20062;-77
2024/01/31 10:20:38;;;;;;;0.90;0.47;;;;;;;9.44;66.69;102383.81;6221630;23;20087;-77
2024/01/31 10:23:04;;;;;;;0.32;0.32;;;;;;;9.39;66.68;102397.34;6211937;23;20018;-77
2024/01/31 10:25:30;;;;;;;0.73;0.60;;;;;;;9.27;65.31;102393.59;6213895;23;20012;-77
2024/01/31 10:27:55;;;;;;;5.47;0.70;;;;;;;8.99;65.68;102390.16;6213552;23;20461;-77
2024/01/31 10:30:21;;;;;;;0.57;0.20;;;;;;;9.01;65.66;102386.09;6223503;23;20017;-77
2024/01/31 10:32:47;;;;;;;0.90;0.45;;;;;;;8.91;65.77;102385.50;6223070;23;20005;-77
2024/01/31 10:35:14;;;;;;;0.40;0.40;;;;;;;8.99;66.47;102385.59;6213109;23;20009;-77
2024/01/31 10:37:39;;;;;;;7.03;0.73;;;;;;;9.02;65.78;102385.00;6221649;23;20020;-77
2024/01/31 10:40:06;;;;;;;4.72;0.30;;;;;;;9.13;65.42;102382.09;6185561;23;20004;-77
2024/01/31 10:42:31;;;;;;;0.22;0.22;;;;;;;9.17;65.79;102372.31;6222872;23;20036;-77
2024/01/31 10:44:58;;;;;;;0.30;0.30;;;;;;;9.26;65.52;102370.50;6211572;23;20339;-77
2024/01/31 10:47:23;;;;;;;3.30;0.40;;;;;;;9.10;66.47;102378.09;6223026;23;20008;-77
2024/01/31 10:49:49;;;;;;;0.57;0.57;;;;;;;9.22;65.99;102364.94;6184809;23;20047;-77
2024/01/31 10:52:20;;;;;;;1.10;0.40;;;;;;;9.41;66.86;102362.88;6222921;23;20043;-78
2024/01/31 10:54:55;;;;;;;0.50;0.43;;;;;;;9.47;66.11;102355.50;6186086;23;20602;-77
2024/01/31 10:57:22;;;;;;;2.80;0.60;;;;;;;9.61;66.06;102345.47;6222173;23;20012;-77
2024/01/31 10:59:49;;;;;;;2.38;0.85;;;;;;;9.60;64.82;102339.28;6186546;23;20003;-76
2024/01/31 11:02:15;;;;;;;0.52;0.32;;;;;;;9.60;65.16;102336.59;6213104;23;20008;-77
2024/01/31 11:04:42;;;;;;;1.85;0.45;;;;;;;9.58;65.58;102325.38;6210645;23;20036;-77
2024/01/31 11:07:15;;;;;;;0.47;0.30;;;;;;;9.54;64.91;102318.22;6161283;23;20004;-76
2024/01/31 11:09:41;;;;;;;0.25;0.25;;;;;;;9.39;65.28;102327.44;6211272;23;20020;-76
2024/01/31 11:12:12;;;;;;;0.43;0.30;;;;;;;9.31;65.38;102325.47;6211411;23;20418;-77
2024/01/31 11:14:41;;;;;;;5.22;0.40;;;;;;;9.17;65.19;102316.69;6223109;23;20091;-77
2024/01/31 11:17:08;;;;;;;0.20;0.20;;;;;;;8.96;65.64;102335.13;6212424;23;20130;-77
2024/01/31 11:19:48;;;;;;;0.40;0.40;;;;;;;9.12;65.13;102329.44;6222962;23;20446;-77
2024/01/31 11:22:14;;;;;;;0.20;0.20;;;;;;;8.89;65.50;102329.41;6212489;23;20111;-77
2024/01/31 11:24:47;;;;;;;2.70;0.50;;;;;;;8.88;66.18;102324.31;6211667;23;20008;-77
2024/01/31 11:27:14;;;;;;;1.02;0.30;;;;;;;8.93;65.61;102340.31;6222216;23;20004;-77
2024/01/31 11:29:41;;;;;;;1.52;0.50;;;;;;;9.06;66.31;102331.44;6222778;23;20051;-77
2024/01/31 11:32:06;;;;;;;1.27;0.57;;;;;;;9.13;66.26;102341.78;6186400;23;20023;-77
2024/01/31 11:34:32;;;;;;;0.20;0.20;;;;;;;9.16;66.03;102343.84;6222304;23;20095;-77